Terminal Aerodrome Forecast
Issued by NWS Jackson, MS

Home | Current Version | Previous Version | Text Only | Print | Product List | Glossary On
Versions: 1 2 3 4 5 6 7 8 9 10 11 12 13 14 15 16 17 18 19 20 21 22 23 24 25 26 27 28 29 30 31
000
FTUS44 KJAN 240630 RRA
TAFHBG
TAF
KHBG 240630Z 2407/2506 VRB03KT P6SM SHRA BKN009 OVC015
     FM241100 34004KT 6SM -RA BR BKN004 OVC008
     FM241700 34004KT P6SM SHRA BKN015 OVC035
     FM242100 34005KT P6SM BKN015 OVC035=

USA.gov is the U.S. government's official web portal to all federal, state and local government web resources and services.